Terminal Aerodrome Forecast
Issued by NWS

Home | Current Version | Previous Version | Text Only | Print | Product List | Glossary On
Versions: 1 2 3 4 5 6 7 8 9 10 11 12 13
000
FTUS45 KRIW 281122
TAFLND
TAF
KLND 281122Z 2812/2912 VRB06KT 6SM FU FEW120
     FM282000 13007KT P6SM SCT110
     FM290300 24008KT P6SM FEW120 SCT200=

USA.gov is the U.S. government's official web portal to all federal, state and local government web resources and services.